»·PEaware :: N9401L KSBA-KOXR

N9401L :: KSBA-KOXR

FLIGHT INFORMATION

Flight Status: Arrived
Operator: Privately registered:
United States
More flights under this callsign
Pilot: Juan D. (11620)
Aircraft: PIPER PA-28R-201 ARROW
(P28R)
More flights by this aircraft type
Origin: KSBA Santa Barbara Mun
United States
Destination: KOXR Oxnard
United States
More flights between these airports :: More routes between these airports
Route: +KWANG CMA
File this flight plan on PilotEdge
Remarks:
Altitude:
(Current/Filed)
3,000ft
Speed:
(Current/Filed)
130kts
Departed: 08-Sep-18 05:41 PM
Arrived: 08-Sep-18 06:21 PM
Distance/Time
Traveled:
35nm/0:40
Distance/Time
To Go:
Arrived

Flight Plot

Page will automatically refresh every two minutes.


Map Options




Map Legend


Flown Route
Filed Route
Departure Airport
Arrival Airport
Navaid (VOR, NDB)
Fix

Horizontal Profiles

Position Reports

Time Latitude Longitude Heading Altitude Ground
Speed
08-Sep-18 17:27 34.432568 -119.835091 71 16ft 0kts
08-Sep-18 17:28 34.432568 -119.835091 71 16ft 0kts
08-Sep-18 17:29 34.432568 -119.835091 71 16ft 0kts
08-Sep-18 17:30 34.432568 -119.835091 71 16ft 0kts
08-Sep-18 17:31 34.432568 -119.835091 71 16ft 0kts
08-Sep-18 17:32 34.432568 -119.835091 71 16ft 0kts
08-Sep-18 17:33 34.432568 -119.835091 71 16ft 0kts
08-Sep-18 17:34 34.432568 -119.835091 71 16ft 0kts
08-Sep-18 17:35 34.432568 -119.835091 71 16ft 0kts
08-Sep-18 17:36 34.431917 -119.835359 179 16ft 13kts
08-Sep-18 17:37 34.429251 -119.835290 176 16ft 0kts
08-Sep-18 17:38 34.429251 -119.835290 176 16ft 0kts
08-Sep-18 17:39 34.428777 -119.834641 174 16ft 0kts
08-Sep-18 17:40 34.428777 -119.834641 174 16ft 0kts
08-Sep-18 17:41 34.428777 -119.834641 174 16ft 0kts
08-Sep-18 17:42 34.427891 -119.835300 264 16ft 0kts
08-Sep-18 17:43 34.427734 -119.842128 267 39ft 85kts
08-Sep-18 17:44 34.426619 -119.871035 267 1206ft 87kts
08-Sep-18 17:45 34.425810 -119.899946 267 2188ft 86kts
08-Sep-18 17:46 34.424818 -119.928623 267 3043ft 88kts
08-Sep-18 17:47 34.399843 -119.949461 166 2989ft 136kts
08-Sep-18 17:48 34.392794 -119.909353 90 2989ft 137kts
08-Sep-18 17:49 34.385619 -119.863838 103 2990ft 138kts
08-Sep-18 17:50 34.376040 -119.819314 104 2990ft 138kts
08-Sep-18 17:51 34.366258 -119.774438 104 2990ft 138kts
08-Sep-18 17:52 34.356452 -119.729565 103 2990ft 138kts
08-Sep-18 17:53 34.346599 -119.684554 103 2990ft 138kts
08-Sep-18 17:54 34.336736 -119.639585 103 2990ft 138kts
08-Sep-18 17:55 34.326842 -119.594547 103 2990ft 138kts
08-Sep-18 17:56 34.317043 -119.550025 103 2990ft 139kts
08-Sep-18 17:57 34.306941 -119.504537 103 2991ft 140kts
08-Sep-18 17:58 34.296487 -119.458773 103 2991ft 142kts
08-Sep-18 17:59 34.285941 -119.412645 104 3009ft 142kts
08-Sep-18 17:59 34.277086 -119.374005 104 3010ft 143kts
08-Sep-18 18:01 34.264698 -119.320061 105 3008ft 144kts
08-Sep-18 18:02 34.253967 -119.273422 105 3008ft 144kts
08-Sep-18 18:02 34.245048 -119.234706 105 3008ft 144kts
08-Sep-18 18:03 34.234368 -119.188450 105 3008ft 144kts
08-Sep-18 18:05 34.233322 -119.138181 87 3695ft 119kts
08-Sep-18 18:05 34.234218 -119.104269 87 4023ft 132kts
08-Sep-18 18:06 34.235717 -119.057495 87 4018ft 143kts
08-Sep-18 18:07 34.237861 -119.009390 87 4017ft 144kts
08-Sep-18 18:08 34.240014 -118.961237 87 4017ft 144kts
08-Sep-18 18:09 34.241484 -118.913108 88 4008ft 144kts
08-Sep-18 18:11 34.242883 -118.864902 88 4008ft 143kts
08-Sep-18 18:12 34.237166 -118.819996 153 3997ft 138kts
08-Sep-18 18:13 34.204261 -118.831351 246 4005ft 132kts
08-Sep-18 18:14 34.198501 -118.874935 261 4008ft 132kts
08-Sep-18 18:15 34.195298 -118.919037 269 4008ft 132kts
08-Sep-18 18:16 34.196924 -118.963410 273 4008ft 132kts
08-Sep-18 18:17 34.199769 -119.007090 273 3672ft 129kts
08-Sep-18 18:18 34.199946 -119.051776 268 2941ft 136kts
08-Sep-18 18:19 34.200082 -119.096850 270 2178ft 137kts
08-Sep-18 18:20 34.200347 -119.136385 270 1147ft 94kts
08-Sep-18 18:21 34.200319 -119.160812 272 676ft 69kts
08-Sep-18 18:22 34.200549 -119.184029 267 353ft 75kts
08-Sep-18 18:23 34.200461 -119.203144 184 45ft 14kts
08-Sep-18 18:24 34.198978 -119.198273 202 45ft 15kts
08-Sep-18 18:25 34.198817 -119.198553 263 45ft 0kts
08-Sep-18 18:26 34.198817 -119.198553 263 45ft 0kts

Navigation Log

Ident Type
1. KSBA Airport
2. KWANG Fix
3. CMA Navaid
4. KOXR Airport